Time;durP1;ratioP1;P1;durP2;ratioP2;P2;SDS_P1;SDS_P2;PMS_P1;PMS_P2;Temp;Humidity;BMP_temperature;BMP_pressure;BME280_temperature;BME280_humidity;BME280_pressure;Samples;Min_cycle;Max_cycle;Signal;HPM_P1;HPM_P2
2022/10/22 00:01:42;;;;;;;17.53;13.17;;;;;;;3.19;87.44;100990.63;1671336;83;21002;-72
2022/10/22 00:04:08;;;;;;;19.20;13.13;;;;;;;3.20;87.38;100996.72;1672873;84;21069;-69
2022/10/22 00:06:34;;;;;;;18.50;14.78;;;;;;;3.12;87.33;100992.90;1671970;84;21073;-70
2022/10/22 00:09:01;;;;;;;16.60;14.13;;;;;;;3.21;87.24;101003.67;1672173;83;21763;-71
2022/10/22 00:11:27;;;;;;;15.50;13.70;;;;;;;3.22;87.12;100997.42;1673371;84;21094;-72
2022/10/22 00:13:54;;;;;;;17.90;14.63;;;;;;;3.21;86.98;100997.91;1673201;84;21022;-73
2022/10/22 00:16:20;;;;;;;18.60;14.95;;;;;;;3.23;86.97;100992.04;1673537;84;21160;-70
2022/10/22 00:18:46;;;;;;;17.48;13.98;;;;;;;3.24;87.02;100978.38;1672474;84;21022;-70
2022/10/22 00:21:12;;;;;;;16.45;13.13;;;;;;;3.25;87.08;100981.38;1672731;84;21045;-72
2022/10/22 00:23:42;;;;;;;18.23;12.82;;;;;;;3.25;87.16;100974.30;1673603;84;21092;-70
2022/10/22 00:26:09;;;;;;;15.37;12.63;;;;;;;3.24;87.33;100976.59;1673472;83;21050;-72
2022/10/22 00:28:36;;;;;;;14.87;12.57;;;;;;;3.26;87.32;100976.48;1672498;84;21022;-71
2022/10/22 00:31:05;;;;;;;16.03;12.80;;;;;;;3.26;87.43;100973.36;1673556;84;21053;-72
2022/10/22 00:33:33;;;;;;;16.33;13.40;;;;;;;3.29;87.28;100972.26;1673912;84;21128;-72
2022/10/22 00:36:00;;;;;;;18.40;12.87;;;;;;;3.30;87.16;100962.91;1674080;84;21061;-71
2022/10/22 00:38:27;;;;;;;15.23;13.13;;;;;;;3.30;87.07;100956.33;1673895;83;21018;-73
2022/10/22 00:40:54;;;;;;;14.23;12.10;;;;;;;3.28;87.03;100954.30;1674274;84;21042;-72
2022/10/22 00:43:20;;;;;;;17.82;12.47;;;;;;;3.28;87.17;100960.89;1673909;84;21042;-71
2022/10/22 00:45:46;;;;;;;16.42;12.58;;;;;;;3.29;87.14;100965.18;1671455;84;21010;-73
2022/10/22 00:48:24;;;;;;;15.00;12.35;;;;;;;3.28;87.19;100956.94;1672767;83;21045;-72
2022/10/22 00:51:04;;;;;;;16.60;12.80;;;;;;;3.26;87.23;100956.23;1672578;84;21022;-71
2022/10/22 00:53:39;;;;;;;16.27;12.50;;;;;;;3.27;87.21;100960.52;1673089;84;21053;-71
2022/10/22 00:56:06;;;;;;;15.00;13.00;;;;;;;3.26;87.15;100960.19;1673168;84;21065;-71
2022/10/22 00:58:44;;;;;;;17.33;12.83;;;;;;;3.26;87.04;100954.91;1673659;84;21029;-70
2022/10/22 01:01:13;;;;;;;;;;;;;;;3.25;86.99;100953.72;1674855;83;21018;-70
2022/10/22 01:03:40;;;;;;;16.77;12.77;;;;;;;3.23;87.02;100939.84;1672893;84;20453;-70
2022/10/22 01:06:06;;;;;;;14.73;11.87;;;;;;;3.16;87.50;100936.02;1672097;84;21614;-70
2022/10/22 01:08:53;;;;;;;13.17;11.77;;;;;;;3.19;87.40;100940.56;1673461;84;21057;-71
2022/10/22 01:11:28;;;;;;;15.03;12.97;;;;;;;3.22;87.37;100937.69;1672619;84;21186;-69
2022/10/22 01:14:06;;;;;;;17.73;12.77;;;;;;;3.24;87.36;100919.95;1673786;84;21050;-71
2022/10/22 01:16:48;;;;;;;16.73;13.10;;;;;;;3.29;87.11;100909.84;1673559;83;21204;-69
2022/10/22 01:19:46;;;;;;;17.00;13.23;;;;;;;3.27;86.80;100890.70;1672541;84;21538;-70
2022/10/22 01:22:17;;;;;;;15.10;12.83;;;;;;;3.40;86.57;100898.42;1673279;84;21112;-71
2022/10/22 01:24:57;;;;;;;16.70;12.27;;;;;;;3.44;86.41;100904.28;1621445;84;20979;-72
2022/10/22 01:27:51;;;;;;;14.73;12.23;;;;;;;3.46;86.27;100911.08;1668121;84;21136;-72
2022/10/22 01:30:19;;;;;;;16.33;12.87;;;;;;;3.52;86.11;100925.55;1672793;84;21522;-71
2022/10/22 01:33:05;;;;;;;16.03;11.73;;;;;;;3.55;85.85;100913.94;1672406;84;21093;-70
2022/10/22 01:35:39;;;;;;;15.83;12.07;;;;;;;3.57;85.81;100908.88;1673526;84;21058;-72
2022/10/22 01:38:10;;;;;;;15.97;13.70;;;;;;;3.57;85.57;100904.09;1673144;84;21006;-71
2022/10/22 01:40:38;;;;;;;13.83;11.93;;;;;;;3.54;85.44;100910.44;1672257;84;21064;-72
2022/10/22 01:43:08;;;;;;;15.60;12.93;;;;;;;3.52;85.58;100908.41;1673214;84;21403;-72
2022/10/22 01:45:46;;;;;;;17.37;12.97;;;;;;;3.52;85.44;100904.46;1669007;84;21108;-73
2022/10/22 01:48:45;;;;;;;17.27;13.23;;;;;;;3.53;85.36;100897.41;1671373;84;21119;-72
2022/10/22 01:52:01;;;;;;;22.77;13.50;;;;;;;3.54;85.24;100903.02;1672558;84;22371;-72
2022/10/22 01:54:49;;;;;;;16.87;12.57;;;;;;;3.51;85.09;100902.80;1671253;84;21050;-70
2022/10/22 01:57:30;;;;;;;14.27;12.10;;;;;;;3.48;85.01;100901.28;1671204;84;21049;-72
2022/10/22 02:00:05;;;;;;;14.47;12.30;;;;;;;3.44;84.94;100895.88;1672147;84;20999;-72
2022/10/22 02:03:04;;;;;;;17.80;12.77;;;;;;;3.39;85.04;100898.09;1672933;84;21025;-72
2022/10/22 02:05:48;;;;;;;16.27;12.98;;;;;;;3.35;85.20;100890.06;1636013;85;21010;-70
2022/10/22 02:08:23;;;;;;;17.37;13.47;;;;;;;3.29;85.32;100883.50;1649478;85;21112;-71
2022/10/22 02:10:53;;;;;;;15.37;12.97;;;;;;;3.29;85.40;100881.36;1641125;86;21120;-73
2022/10/22 02:13:25;;;;;;;13.37;11.17;;;;;;;3.26;85.37;100874.55;1657150;84;21198;-68
2022/10/22 02:15:55;;;;;;;13.37;11.37;;;;;;;3.27;85.39;100882.80;1673343;84;21041;-69
2022/10/22 02:18:27;;;;;;;15.20;11.37;;;;;;;3.27;85.41;100880.16;1650736;85;21025;-70
2022/10/22 02:20:56;;;;;;;12.03;10.60;;;;;;;3.26;85.41;100879.00;1649950;84;21021;-70
2022/10/22 02:23:22;;;;;;;13.67;11.33;;;;;;;3.25;85.44;100885.21;1649943;85;21049;-70
2022/10/22 02:25:53;;;;;;;;;;;;;;;3.23;85.42;100884.02;1671480;84;21507;-70
2022/10/22 02:28:48;;;;;;;14.40;11.57;;;;;;;3.19;85.58;100867.29;1677736;82;20158;-70
2022/10/22 02:31:20;;;;;;;16.20;11.37;;;;;;;3.09;85.83;100865.91;1676523;84;21041;-67
2022/10/22 02:33:54;;;;;;;17.03;10.97;;;;;;;3.04;86.11;100863.63;1677962;84;21045;-68
2022/10/22 02:36:21;;;;;;;14.33;10.40;;;;;;;3.01;86.33;100859.09;1676646;84;21547;-69
2022/10/22 02:38:50;;;;;;;15.17;11.37;;;;;;;2.98;86.56;100850.15;1676960;84;21553;-70
2022/10/22 02:41:18;;;;;;;13.87;11.27;;;;;;;2.91;86.97;100847.17;1676314;84;21006;-70
2022/10/22 02:43:52;;;;;;;15.77;11.00;;;;;;;2.91;86.92;100837.47;1677532;84;21064;-71
2022/10/22 02:46:19;;;;;;;12.40;10.77;;;;;;;2.91;87.04;100830.88;1640164;85;21001;-71
2022/10/22 02:48:45;;;;;;;13.70;11.25;;;;;;;2.91;86.89;100832.69;1678089;83;21053;-70
2022/10/22 02:51:12;;;;;;;14.70;11.33;;;;;;;2.97;86.78;100833.49;1677661;84;21114;-70
2022/10/22 02:53:39;;;;;;;12.37;10.73;;;;;;;2.98;86.58;100831.72;1676878;84;21097;-70
2022/10/22 02:56:06;;;;;;;17.05;10.50;;;;;;;2.97;86.54;100832.66;1676613;84;21062;-70
2022/10/22 02:58:32;;;;;;;12.27;11.00;;;;;;;2.97;86.47;100832.66;1677204;84;21014;-69
2022/10/22 03:00:58;;;;;;;15.28;10.32;;;;;;;2.95;86.52;100831.96;1676576;84;21025;-71
2022/10/22 03:03:25;;;;;;;16.82;11.43;;;;;;;2.90;86.62;100834.95;1675173;84;21393;-70
2022/10/22 03:05:51;;;;;;;12.75;10.70;;;;;;;2.92;86.56;100828.62;1675759;84;21102;-72
2022/10/22 03:08:19;;;;;;;16.10;10.37;;;;;;;2.90;86.76;100829.23;1675414;84;21030;-73
2022/10/22 03:10:45;;;;;;;13.22;10.20;;;;;;;2.91;86.71;100826.11;1675981;84;21064;-71
2022/10/22 03:13:13;;;;;;;11.87;10.27;;;;;;;2.93;86.63;100822.86;1675315;84;21167;-69
2022/10/22 03:15:39;;;;;;;12.73;10.28;;;;;;;2.96;86.54;100814.72;1675017;84;21030;-72
2022/10/22 03:18:07;;;;;;;14.53;9.83;;;;;;;3.01;86.43;100813.01;1677118;84;21526;-73
2022/10/22 03:20:34;;;;;;;11.57;9.83;;;;;;;3.06;86.26;100818.73;1676633;84;21594;-74
2022/10/22 03:23:02;;;;;;;15.87;10.77;;;;;;;3.08;86.10;100820.76;1678340;84;21030;-74
2022/10/22 03:25:33;;;;;;;13.45;10.23;;;;;;;3.07;86.00;100818.62;1640590;86;21167;-73
2022/10/22 03:28:03;;;;;;;13.27;11.13;;;;;;;3.07;85.99;100815.98;1634029;86;21129;-71
2022/10/22 03:30:30;;;;;;;12.13;10.77;;;;;;;3.03;86.00;100808.45;1635180;86;21522;-71
2022/10/22 03:32:56;;;;;;;13.70;10.80;;;;;;;2.97;86.32;100805.02;1634972;86;21137;-69
2022/10/22 03:35:23;;;;;;;15.53;10.40;;;;;;;2.96;86.39;100799.37;1634999;86;21011;-73
2022/10/22 03:37:52;;;;;;;14.40;10.93;;;;;;;2.94;86.61;100806.11;1635775;86;21069;-69
2022/10/22 03:40:18;;;;;;;;;;;;;;;2.93;86.61;100784.19;1636604;86;21071;-68
2022/10/22 03:42:46;;;;;;;12.63;10.23;;;;;;;2.93;86.70;100783.36;1633931;86;20182;-69
2022/10/22 03:45:12;;;;;;;13.25;10.48;;;;;;;2.92;86.70;100802.29;1634268;86;21074;-70
2022/10/22 03:47:40;;;;;;;12.63;10.40;;;;;;;2.98;86.67;100797.48;1617676;86;21042;-72
2022/10/22 03:50:11;;;;;;;16.33;11.90;;;;;;;2.99;86.46;100797.33;1634976;86;21082;-71
2022/10/22 03:52:38;;;;;;;15.27;10.97;;;;;;;3.01;86.34;100790.63;1632982;86;21065;-69
2022/10/22 03:55:06;;;;;;;14.37;12.33;;;;;;;3.00;86.39;100785.84;1633237;86;21085;-69
2022/10/22 03:57:33;;;;;;;16.53;13.90;;;;;;;2.98;86.46;100779.05;1677003;84;21065;-70
2022/10/22 04:00:05;;;;;;;17.40;13.63;;;;;;;2.98;86.57;100774.61;1676955;84;21618;-69
2022/10/22 04:02:31;;;;;;;17.13;13.37;;;;;;;2.99;86.58;100774.12;1676950;84;21068;-70
2022/10/22 04:04:59;;;;;;;13.47;11.43;;;;;;;3.02;86.55;100779.14;1676872;84;21051;-70
2022/10/22 04:07:25;;;;;;;14.23;12.25;;;;;;;3.05;86.43;100771.81;1677336;84;21032;-66
2022/10/22 04:09:51;;;;;;;15.88;11.85;;;;;;;3.10;86.30;100771.42;1677960;83;21105;-66
2022/10/22 04:12:18;;;;;;;22.82;12.47;;;;;;;3.14;86.19;100767.55;1677420;84;20981;-66
2022/10/22 04:14:45;;;;;;;15.57;11.10;;;;;;;3.16;86.00;100770.89;1676474;84;21164;-67
2022/10/22 04:17:12;;;;;;;;;;;;;;;3.18;85.91;100766.33;1679547;84;21527;-65
2022/10/22 04:19:38;;;;;;;10.67;9.57;;;;;;;3.22;85.83;100766.45;1677141;84;20486;-66
2022/10/22 04:22:06;;;;;;;17.50;11.67;;;;;;;3.20;85.83;100766.20;1677240;84;21577;-66
2022/10/22 04:24:33;;;;;;;18.63;10.90;;;;;;;3.23;85.66;100764.14;1677658;84;21577;-68
2022/10/22 04:27:00;;;;;;;14.45;11.65;;;;;;;3.28;85.51;100748.79;1677093;84;21559;-66
2022/10/22 04:29:26;;;;;;;15.90;11.83;;;;;;;3.34;85.20;100753.19;1677835;84;21045;-69
2022/10/22 04:31:54;;;;;;;15.37;11.83;;;;;;;3.36;85.07;100752.08;1676888;84;21018;-66
2022/10/22 04:34:20;;;;;;;18.67;13.80;;;;;;;3.40;84.90;100748.21;1681234;84;21069;-69
2022/10/22 04:36:47;;;;;;;18.17;13.07;;;;;;;3.45;84.79;100753.11;1677440;84;22331;-67
2022/10/22 04:39:14;;;;;;;14.00;11.25;;;;;;;3.50;84.56;100752.20;1677892;83;21000;-69
2022/10/22 04:41:42;;;;;;;16.10;10.93;;;;;;;3.56;84.37;100750.84;1676811;84;20987;-66
2022/10/22 04:44:08;;;;;;;16.37;12.40;;;;;;;3.59;83.95;100754.05;1677869;84;21088;-67
2022/10/22 04:46:35;;;;;;;14.28;10.68;;;;;;;3.65;83.57;100760.10;1677855;84;21077;-67
2022/10/22 04:49:03;;;;;;;18.97;11.90;;;;;;;3.69;83.29;100765.48;1677903;84;21547;-68
2022/10/22 04:51:31;;;;;;;15.17;10.60;;;;;;;3.78;83.09;100763.83;1677415;84;21085;-74
2022/10/22 04:53:59;;;;;;;14.67;10.50;;;;;;;3.82;82.80;100766.55;1677296;84;21238;-65
2022/10/22 04:56:29;;;;;;;16.55;10.38;;;;;;;3.88;82.74;100770.45;1676703;84;21069;-66
2022/10/22 04:59:04;;;;;;;17.80;11.37;;;;;;;3.94;82.50;100760.70;1677244;84;21152;-65
2022/10/22 05:01:37;;;;;;;13.33;9.80;;;;;;;4.00;82.35;100772.52;1678218;83;20989;-71
2022/10/22 05:04:06;;;;;;;12.50;10.37;;;;;;;4.08;81.91;100777.94;1677626;84;21539;-73
2022/10/22 05:06:35;;;;;;;15.83;10.43;;;;;;;4.13;81.57;100772.27;1676083;83;21002;-67
2022/10/22 05:09:12;;;;;;;15.97;10.17;;;;;;;4.16;81.56;100763.58;1676673;84;21005;-65
2022/10/22 05:11:45;;;;;;;20.88;11.38;;;;;;;4.21;81.36;100753.95;1677842;83;21012;-67
2022/10/22 05:14:11;;;;;;;16.33;11.13;;;;;;;4.25;81.10;100744.28;1678198;84;21017;-67
2022/10/22 05:16:38;;;;;;;16.93;10.70;;;;;;;4.26;80.61;100736.73;1677561;83;20990;-68
2022/10/22 05:19:05;;;;;;;11.15;9.93;;;;;;;4.25;80.35;100736.86;1677116;84;21176;-65
2022/10/22 05:21:36;;;;;;;13.90;10.47;;;;;;;4.25;80.37;100732.91;1676729;84;21633;-70
2022/10/22 05:24:05;;;;;;;13.30;10.43;;;;;;;4.17;80.39;100735.41;1677055;84;21848;-67
2022/10/22 05:26:31;;;;;;;14.43;11.27;;;;;;;4.15;80.36;100732.08;1677842;84;21605;-66
2022/10/22 05:28:57;;;;;;;14.90;11.38;;;;;;;4.16;80.39;100724.00;1678221;84;21490;-67
2022/10/22 05:31:23;;;;;;;16.07;12.63;;;;;;;4.17;80.33;100730.13;1678916;84;21043;-66
2022/10/22 05:33:51;;;;;;;15.77;13.70;;;;;;;3.77;80.22;100662.44;1677495;84;21536;-66
2022/10/22 05:36:20;;;;;;;18.65;14.20;;;;;;;4.19;80.11;100737.42;1677691;84;21022;-75
2022/10/22 05:38:48;;;;;;;21.27;16.00;;;;;;;4.18;80.23;100744.52;1627360;87;21254;-70
2022/10/22 05:41:19;;;;;;;17.70;13.53;;;;;;;4.18;80.09;100748.47;1640480;86;21024;-68
2022/10/22 05:43:47;;;;;;;17.13;12.63;;;;;;;4.20;80.18;100743.89;1677227;84;21049;-70
2022/10/22 05:46:18;;;;;;;19.00;12.33;;;;;;;4.21;80.22;100736.30;1677440;84;21057;-69
2022/10/22 05:48:58;;;;;;;19.10;12.97;;;;;;;4.23;80.06;100737.00;1672746;84;21203;-69
2022/10/22 05:51:29;;;;;;;19.53;13.30;;;;;;;4.26;79.91;100740.69;1675046;83;21592;-69
2022/10/22 05:53:59;;;;;;;17.80;12.53;;;;;;;4.27;79.98;100744.16;1677022;84;21064;-69
2022/10/22 05:56:29;;;;;;;16.17;12.37;;;;;;;4.34;80.02;100748.41;1675917;84;22200;-68
2022/10/22 05:58:56;;;;;;;17.23;12.40;;;;;;;4.41;79.99;100746.41;1673618;84;21113;-71
2022/10/22 06:01:27;;;;;;;16.57;11.17;;;;;;;4.48;79.35;100736.96;1673317;84;21037;-72
2022/10/22 06:03:58;;;;;;;15.63;10.73;;;;;;;4.59;79.24;100733.82;1676553;84;21088;-72
2022/10/22 06:06:36;;;;;;;16.83;12.00;;;;;;;4.73;78.59;100737.83;1674631;83;20997;-71
2022/10/22 06:09:17;;;;;;;15.20;10.27;;;;;;;4.86;78.20;100735.76;1673898;84;21172;-72
2022/10/22 06:11:46;;;;;;;15.60;11.33;;;;;;;5.03;78.20;100732.88;1675903;84;21045;-71
2022/10/22 06:14:13;;;;;;;13.73;10.17;;;;;;;5.26;77.22;100732.05;1675465;84;21058;-71
2022/10/22 06:16:39;;;;;;;14.67;9.73;;;;;;;5.48;75.65;100729.51;1676702;84;21083;-72
2022/10/22 06:19:07;;;;;;;12.37;9.23;;;;;;;5.64;74.09;100732.36;1658839;84;21169;-71
2022/10/22 06:21:35;;;;;;;15.70;9.83;;;;;;;5.73;73.60;100725.37;1676374;84;21009;-71
2022/10/22 06:24:03;;;;;;;13.67;9.73;;;;;;;5.85;74.00;100731.29;1675092;84;21535;-73
2022/10/22 06:26:30;;;;;;;14.23;9.60;;;;;;;5.97;73.45;100727.97;1676651;84;21072;-72
2022/10/22 06:28:59;;;;;;;13.10;9.53;;;;;;;6.09;73.20;100725.97;1675150;84;21033;-74
2022/10/22 06:31:27;;;;;;;12.17;9.07;;;;;;;6.22;72.92;100728.58;1676514;84;21061;-71
2022/10/22 06:33:56;;;;;;;17.80;9.90;;;;;;;6.31;71.38;100723.36;1676114;84;21033;-74
2022/10/22 06:36:27;;;;;;;15.10;9.17;;;;;;;6.35;71.36;100725.56;1681660;84;21058;-72
2022/10/22 06:38:55;;;;;;;11.83;8.70;;;;;;;6.39;70.98;100728.75;1677608;84;21092;-71
2022/10/22 06:41:22;;;;;;;11.20;9.00;;;;;;;6.41;71.17;100732.89;1676180;84;20966;-72
2022/10/22 06:43:49;;;;;;;15.60;9.67;;;;;;;6.42;70.40;100725.77;1676907;84;21046;-73
2022/10/22 06:46:17;;;;;;;;;;;;;;;6.43;70.34;100722.16;1679553;84;20985;-72
2022/10/22 06:48:50;;;;;;;16.93;9.10;;;;;;;6.45;70.22;100722.02;1675671;84;20107;-73
2022/10/22 06:51:17;;;;;;;11.30;8.60;;;;;;;6.37;70.03;100720.95;1676999;84;21064;-76
2022/10/22 06:53:44;;;;;;;12.68;8.63;;;;;;;6.38;70.44;100710.68;1676452;84;20994;-73
2022/10/22 06:57:32;;;;;;;11.57;8.33;;;;;;;6.51;70.67;100705.50;1789482;77;22177;-73
2022/10/22 06:59:58;;;;;;;16.07;9.10;;;;;;;6.51;70.51;100708.16;1693892;83;21773;-71
2022/10/22 07:02:24;;;;;;;9.40;7.97;;;;;;;6.55;69.86;100706.86;1675461;84;21102;-73
2022/10/22 07:04:52;;;;;;;10.80;7.80;;;;;;;6.63;69.99;100717.53;1672562;84;21043;-72
2022/10/22 07:07:18;;;;;;;9.87;8.70;;;;;;;6.66;69.65;100715.06;1646943;86;21114;-71
2022/10/22 07:09:46;;;;;;;;;;;;;;;6.65;69.59;100714.71;1691303;83;20988;-71
2022/10/22 07:12:12;;;;;;;9.95;7.47;;;;;;;6.66;69.87;100711.09;1655321;86;20177;-72
2022/10/22 07:14:42;;;;;;;10.27;6.97;;;;;;;6.63;70.12;100718.36;1663452;85;21054;-72
2022/10/22 07:17:09;;;;;;;8.93;7.10;;;;;;;6.69;70.50;100701.02;1657047;84;21488;-72
2022/10/22 07:19:35;;;;;;;13.37;9.77;;;;;;;6.74;70.08;100702.73;1688082;83;21121;-73
2022/10/22 07:22:01;;;;;;;11.28;7.75;;;;;;;6.81;70.35;100705.06;1654071;83;21083;-72
2022/10/22 07:24:28;;;;;;;11.50;7.83;;;;;;;6.92;70.31;100704.50;1647356;85;21106;-72
2022/10/22 07:26:54;;;;;;;12.23;8.30;;;;;;;7.01;69.88;100694.28;1639688;85;21251;-73
2022/10/22 07:29:20;;;;;;;11.78;8.60;;;;;;;7.09;69.95;100695.65;1645571;85;21031;-71
2022/10/22 07:31:47;;;;;;;10.27;7.93;;;;;;;7.18;69.87;100697.87;1650207;85;21117;-71
2022/10/22 07:34:13;;;;;;;10.88;7.70;;;;;;;7.20;69.45;100690.58;1645325;85;21091;-73
2022/10/22 07:36:39;;;;;;;10.80;7.60;;;;;;;7.20;69.66;100692.73;1649444;85;22348;-75
2022/10/22 07:39:06;;;;;;;10.15;7.50;;;;;;;7.20;69.59;100694.06;1650206;85;21135;-75
2022/10/22 07:41:32;;;;;;;10.30;7.12;;;;;;;7.20;69.68;100691.41;1653029;85;21344;-76
2022/10/22 07:43:58;;;;;;;11.50;7.28;;;;;;;7.20;69.58;100683.95;1656293;85;21070;-74
2022/10/22 07:46:25;;;;;;;10.70;7.12;;;;;;;7.21;69.91;100679.83;1631195;85;21108;-74
2022/10/22 07:48:52;;;;;;;10.43;7.57;;;;;;;7.25;69.91;100676.34;1640536;84;21060;-73
2022/10/22 07:51:18;;;;;;;15.03;8.60;;;;;;;7.29;69.94;100676.38;1637505;85;22020;-75
2022/10/22 07:53:45;;;;;;;8.67;7.27;;;;;;;7.37;70.30;100673.75;1653619;83;21565;-73
2022/10/22 07:56:13;;;;;;;8.97;8.00;;;;;;;7.48;70.03;100671.80;1617234;86;21112;-77
2022/10/22 07:58:42;;;;;;;10.27;7.50;;;;;;;7.52;69.23;100671.33;1620890;87;21109;-78
2022/10/22 08:01:08;;;;;;;12.95;7.90;;;;;;;7.56;69.27;100665.21;1649730;84;21085;-76
2022/10/22 08:03:36;;;;;;;10.63;7.43;;;;;;;7.60;69.00;100655.94;1650671;85;21025;-74
2022/10/22 08:06:04;;;;;;;11.83;7.97;;;;;;;7.65;68.98;100665.58;1638953;85;21317;-75
2022/10/22 08:08:32;;;;;;;11.07;7.00;;;;;;;7.69;68.86;100670.89;1658426;84;21102;-77
2022/10/22 08:11:00;;;;;;;9.53;7.37;;;;;;;7.73;68.54;100667.42;1675556;84;21017;-76
2022/10/22 08:13:29;;;;;;;7.70;6.90;;;;;;;7.73;68.10;100668.75;1685766;82;21049;-74
2022/10/22 08:15:58;;;;;;;14.07;7.27;;;;;;;7.77;68.24;100668.75;1660688;84;21530;-76
2022/10/22 08:18:25;;;;;;;10.90;6.90;;;;;;;7.81;67.98;100670.09;1673325;83;21063;-74
2022/10/22 08:20:52;;;;;;;7.87;7.10;;;;;;;7.86;68.23;100659.82;1668341;83;21077;-77
2022/10/22 08:23:20;;;;;;;14.40;7.77;;;;;;;7.90;68.01;100665.64;1680073;84;21048;-76
2022/10/22 08:25:46;;;;;;;;;;;;;;;7.94;67.98;100673.61;1686954;83;21136;-77
2022/10/22 08:28:12;;;;;;;10.37;7.03;;;;;;;7.96;67.36;100679.07;1655321;84;20174;-72
2022/10/22 08:30:40;;;;;;;7.83;5.45;;;;;;;7.96;67.75;100677.75;1680353;83;21056;-74
2022/10/22 08:33:06;;;;;;;8.40;5.90;;;;;;;8.02;67.86;100668.80;1689328;82;21549;-76
2022/10/22 08:35:32;;;;;;;7.00;5.87;;;;;;;8.08;67.39;100668.14;1669999;83;21034;-72
2022/10/22 08:37:59;;;;;;;10.00;7.08;;;;;;;8.11;67.03;100677.13;1665040;83;21605;-75
2022/10/22 08:40:33;;;;;;;7.58;6.60;;;;;;;8.10;67.11;100680.75;1657279;85;21026;-78
2022/10/22 08:43:14;;;;;;;11.97;6.23;;;;;;;8.12;67.25;100680.13;1645844;86;21033;-76
2022/10/22 08:45:48;;;;;;;10.70;5.87;;;;;;;8.14;67.04;100674.15;1687721;83;21560;-74
2022/10/22 08:48:44;;;;;;;8.60;6.00;;;;;;;8.21;67.22;100672.47;1683573;84;21016;-77
2022/10/22 08:51:15;;;;;;;7.80;5.87;;;;;;;8.31;67.06;100665.19;1675677;84;21559;-76
2022/10/22 08:54:02;;;;;;;10.17;6.50;;;;;;;8.37;66.88;100653.08;1678326;84;21521;-77
2022/10/22 08:56:30;;;;;;;6.50;5.70;;;;;;;8.41;66.49;100663.69;1657658;84;21602;-77
2022/10/22 08:59:02;;;;;;;7.30;6.13;;;;;;;8.47;66.75;100658.25;1697766;83;21326;-73
2022/10/22 09:01:38;;;;;;;10.93;6.23;;;;;;;8.54;66.50;100660.57;1663786;83;21430;-77
2022/10/22 09:04:30;;;;;;;6.47;5.87;;;;;;;8.57;66.60;100666.89;1636643;85;21092;-75
2022/10/22 09:06:58;;;;;;;8.20;5.80;;;;;;;8.57;66.65;100661.58;1654694;85;21062;-74
2022/10/22 09:09:30;;;;;;;11.40;6.07;;;;;;;8.59;67.03;100652.94;1644449;85;21065;-76
2022/10/22 09:11:59;;;;;;;9.97;7.03;;;;;;;8.61;66.66;100646.10;1648895;85;21032;-76
2022/10/22 09:14:28;;;;;;;11.50;6.80;;;;;;;8.58;66.71;100651.27;1649045;85;21090;-76
2022/10/22 09:17:13;;;;;;;7.03;6.20;;;;;;;8.55;66.93;100643.62;1604007;83;21042;-73
2022/10/22 09:19:59;;;;;;;9.87;6.43;;;;;;;8.56;67.32;100646.62;1677240;83;21053;-77
2022/10/22 09:22:51;;;;;;;12.30;6.93;;;;;;;8.57;67.23;100656.27;1659998;83;21575;-74
2022/10/22 09:25:25;;;;;;;12.37;6.90;;;;;;;8.57;67.54;100645.64;1640642;84;21045;-78
2022/10/22 09:27:57;;;;;;;7.53;6.43;;;;;;;8.56;67.67;100646.62;1650113;85;21147;-75
2022/10/22 09:30:30;;;;;;;10.47;6.83;;;;;;;8.60;67.75;100651.10;1706633;83;21120;-78
2022/10/22 09:33:17;;;;;;;6.67;5.83;;;;;;;8.64;67.88;100639.95;1686304;83;21052;-74
2022/10/22 09:35:51;;;;;;;10.93;6.85;;;;;;;8.69;67.60;100619.54;1703778;83;21080;-76
2022/10/22 09:38:22;;;;;;;7.87;4.30;;;;;;;8.69;67.59;100607.58;1680611;81;21475;-74
2022/10/22 09:40:52;;;;;;;7.50;5.43;;;;;;;8.67;68.03;100608.25;1668895;85;21483;-78
2022/10/22 09:43:18;;;;;;;9.70;6.10;;;;;;;8.67;68.22;100607.74;1644439;87;20966;-74
2022/10/22 09:45:46;;;;;;;5.90;5.40;;;;;;;8.65;68.69;100599.11;1650510;85;21045;-77
2022/10/22 09:48:25;;;;;;;10.73;6.60;;;;;;;8.65;68.96;100601.77;1648549;85;20965;-77
2022/10/22 09:50:58;;;;;;;8.70;6.63;;;;;;;8.65;69.10;100591.14;1639974;86;21657;-75
2022/10/22 09:53:28;;;;;;;7.80;5.97;;;;;;;8.65;69.66;100590.31;1638527;86;21077;-76
2022/10/22 09:55:59;;;;;;;7.53;5.90;;;;;;;8.60;69.96;100594.80;1638485;86;21128;-74
2022/10/22 09:58:27;;;;;;;9.40;6.03;;;;;;;8.65;70.11;100587.16;1639244;85;21041;-77
2022/10/22 10:00:59;;;;;;;6.70;5.63;;;;;;;8.70;70.24;100583.50;1638709;85;21450;-76
2022/10/22 10:03:32;;;;;;;6.93;5.47;;;;;;;8.76;70.34;100580.66;1637768;86;21030;-77
2022/10/22 10:06:00;;;;;;;9.60;6.80;;;;;;;8.79;70.33;100594.09;1630187;83;21131;-77
2022/10/22 10:08:26;;;;;;;21.80;8.23;;;;;;;8.83;70.39;100588.77;1629196;85;21028;-76
2022/10/22 10:11:23;;;;;;;12.47;8.48;;;;;;;8.85;70.46;100585.43;1628999;86;22523;-77
2022/10/22 10:14:37;;;;;;;8.77;7.83;;;;;;;8.86;70.38;100572.48;1624753;86;21094;-76
2022/10/22 10:17:32;;;;;;;9.07;7.90;;;;;;;8.84;70.51;100584.61;1637889;84;21055;-75
2022/10/22 10:20:11;;;;;;;13.47;7.67;;;;;;;8.83;71.08;100577.62;1652541;86;21101;-74
2022/10/22 10:23:23;;;;;;;10.97;7.47;;;;;;;8.85;71.29;100566.82;1607362;88;21171;-75
2022/10/22 10:26:05;;;;;;;8.20;7.40;;;;;;;8.88;71.36;100564.66;1657125;85;21491;-76
2022/10/22 10:28:56;;;;;;;9.90;6.53;;;;;;;8.93;71.50;100562.83;1662248;85;21526;-73
2022/10/22 10:31:46;;;;;;;7.43;6.70;;;;;;;8.96;71.65;100551.32;1630779;86;21082;-75
2022/10/22 10:34:33;;;;;;;8.30;7.40;;;;;;;9.05;71.52;100554.78;1657482;86;21256;-76
2022/10/22 10:37:22;;;;;;;8.78;7.22;;;;;;;9.14;71.58;100549.77;1663613;85;21052;-75
2022/10/22 10:40:09;;;;;;;8.90;7.40;;;;;;;9.26;71.67;100561.34;1650558;85;21066;-71
2022/10/22 10:42:43;;;;;;;9.20;7.50;;;;;;;9.35;71.42;100562.95;1690497;83;20958;-75
2022/10/22 10:45:52;;;;;;;8.67;6.67;;;;;;;9.44;71.61;100557.92;1671017;83;21017;-75
2022/10/22 10:48:30;;;;;;;;;;;;;;;9.53;71.21;100548.03;1698612;83;21098;-74
2022/10/22 10:51:54;;;;;;;13.87;7.67;;;;;;;9.59;71.02;100531.38;1693399;84;20135;-75
2022/10/22 10:54:34;;;;;;;12.07;6.73;;;;;;;9.58;71.15;100539.53;1679430;84;20963;-77
2022/10/22 10:57:35;;;;;;;15.93;7.07;;;;;;;9.64;71.28;100562.77;1696643;83;21025;-73
2022/10/22 11:00:18;;;;;;;10.07;7.03;;;;;;;9.68;71.18;100566.73;1694113;84;20997;-77
2022/10/22 11:02:59;;;;;;;8.70;6.47;;;;;;;9.70;71.33;100555.41;1695943;84;21028;-76
2022/10/22 11:05:40;;;;;;;13.60;6.87;;;;;;;9.78;71.40;100564.69;1654774;85;21588;-73
2022/10/22 11:08:36;;;;;;;11.00;6.93;;;;;;;9.85;71.11;100561.64;1651729;85;21094;-75
2022/10/22 11:11:20;;;;;;;12.90;6.93;;;;;;;9.87;70.93;100566.28;1708450;83;21030;-74
2022/10/22 11:14:04;;;;;;;11.23;7.07;;;;;;;9.82;71.40;100542.02;1700640;84;20987;-74
2022/10/22 11:16:42;;;;;;;14.53;7.50;;;;;;;9.78;71.64;100531.92;1698765;83;21121;-74
2022/10/22 11:19:19;;;;;;;9.37;7.57;;;;;;;9.75;71.81;100532.57;1702820;83;21069;-74
2022/10/22 11:22:11;;;;;;;12.13;7.43;;;;;;;9.78;72.00;100531.41;1697086;83;20975;-76
2022/10/22 11:24:58;;;;;;;11.80;6.93;;;;;;;9.85;72.00;100538.16;1679767;81;20980;-73
2022/10/22 11:27:58;;;;;;;8.23;7.17;;;;;;;9.88;71.96;100531.98;1683641;84;21146;-75
2022/10/22 11:30:29;;;;;;;20.43;8.67;;;;;;;9.93;71.94;100530.95;1646123;85;21502;-75
2022/10/22 11:33:01;;;;;;;9.87;7.13;;;;;;;9.94;71.95;100525.95;1661290;85;20983;-74
2022/10/22 11:35:34;;;;;;;9.60;6.93;;;;;;;10.00;71.97;100526.22;1676468;84;21078;-70
2022/10/22 11:38:04;;;;;;;8.10;7.30;;;;;;;10.07;72.14;100524.50;1676258;84;20959;-67
2022/10/22 11:40:38;;;;;;;11.13;6.90;;;;;;;10.12;71.83;100516.30;1675493;84;21808;-71
2022/10/22 11:43:10;;;;;;;9.23;6.97;;;;;;;10.16;71.96;100504.78;1671829;84;21361;-69
2022/10/22 11:45:41;;;;;;;11.10;6.57;;;;;;;10.19;71.89;100488.44;1681706;84;20999;-67
2022/10/22 11:48:18;;;;;;;9.83;7.80;;;;;;;10.24;72.02;100487.37;1680116;84;21641;-69
2022/10/22 11:50:59;;;;;;;9.55;7.87;;;;;;;10.25;71.96;100477.56;1651872;85;20995;-69